createdAt,value
2023-05-14T00:00:34.787Z,0.00
2023-05-14T00:01:34.746Z,0.00
2023-05-14T00:02:34.826Z,0.00
2023-05-14T00:03:34.911Z,0.00
2023-05-14T00:04:34.741Z,0.00
2023-05-14T00:05:34.746Z,0.00
2023-05-14T00:06:34.665Z,0.00
2023-05-14T00:07:34.597Z,0.00
2023-05-14T00:08:34.645Z,0.00
2023-05-14T00:09:34.566Z,0.00
2023-05-14T00:10:34.620Z,0.00
2023-05-14T00:11:34.624Z,0.00
2023-05-14T00:12:34.583Z,0.00
2023-05-14T00:13:34.555Z,0.00
2023-05-14T00:14:34.549Z,0.00
2023-05-14T00:15:34.721Z,0.00
2023-05-14T00:16:34.508Z,0.00
2023-05-14T00:17:34.541Z,0.00
2023-05-14T00:18:34.545Z,0.00
2023-05-14T00:19:34.511Z,0.00
2023-05-14T00:20:34.513Z,0.00
2023-05-14T00:21:34.492Z,0.00
2023-05-14T00:22:34.462Z,0.00
2023-05-14T00:23:34.473Z,0.00
2023-05-14T00:24:34.405Z,0.00
2023-05-14T00:25:34.429Z,0.00
2023-05-14T00:26:34.457Z,0.00
2023-05-14T00:27:34.417Z,0.00
2023-05-14T00:28:34.423Z,0.00
2023-05-14T00:29:34.459Z,0.00
2023-05-14T00:30:34.397Z,0.00
2023-05-14T00:31:34.382Z,0.00
2023-05-14T00:32:34.349Z,0.00
2023-05-14T00:33:34.380Z,0.00
2023-05-14T00:34:34.373Z,0.00
2023-05-14T00:35:34.326Z,0.00
2023-05-14T00:36:34.326Z,0.00
2023-05-14T00:37:34.274Z,0.00
2023-05-14T00:38:34.253Z,0.00
2023-05-14T00:39:34.265Z,0.00
2023-05-14T00:40:34.315Z,0.00
2023-05-14T00:41:34.293Z,0.00
2023-05-14T00:42:34.209Z,0.00
2023-05-14T00:43:34.192Z,0.00
2023-05-14T00:44:34.270Z,0.00
2023-05-14T00:45:34.292Z,0.00
2023-05-14T00:46:34.279Z,0.00
2023-05-14T00:47:34.231Z,0.00
2023-05-14T00:48:34.166Z,0.00
2023-05-14T00:49:34.190Z,0.00
2023-05-14T00:50:34.251Z,0.00
2023-05-14T00:51:34.140Z,0.00
2023-05-14T00:52:34.133Z,0.00
2023-05-14T00:53:34.120Z,0.00
2023-05-14T00:54:34.092Z,0.00
2023-05-14T00:55:34.162Z,0.00
2023-05-14T00:56:34.134Z,0.00
2023-05-14T00:57:34.246Z,0.00
2023-05-14T00:58:34.090Z,0.00
2023-05-14T00:59:34.334Z,0.00
2023-05-14T01:00:34.126Z,0.00
2023-05-14T01:01:34.270Z,0.00
2023-05-14T01:02:34.125Z,0.00
2023-05-14T01:03:34.287Z,0.00
2023-05-14T01:04:33.981Z,0.00
2023-05-14T01:05:34.084Z,0.00
2023-05-14T01:06:33.985Z,0.00
2023-05-14T01:07:33.965Z,0.00
2023-05-14T01:08:33.988Z,0.00
2023-05-14T01:09:33.949Z,0.00
2023-05-14T01:10:34.030Z,0.00
2023-05-14T01:11:33.973Z,0.00
2023-05-14T01:12:34.000Z,0.00
2023-05-14T01:13:33.953Z,0.00
2023-05-14T01:14:33.991Z,0.00
2023-05-14T01:15:33.893Z,0.00
2023-05-14T01:16:33.885Z,0.00
2023-05-14T01:17:33.942Z,0.00
2023-05-14T01:18:33.918Z,0.00
2023-05-14T01:19:33.837Z,0.00
2023-05-14T01:20:33.814Z,0.00
2023-05-14T01:21:33.863Z,0.00
2023-05-14T01:22:33.831Z,0.00
2023-05-14T01:23:33.846Z,0.00
2023-05-14T01:24:33.779Z,0.00
2023-05-14T01:25:33.778Z,0.00
2023-05-14T01:26:33.780Z,0.00
2023-05-14T01:27:33.784Z,0.00
2023-05-14T01:28:33.781Z,0.00
2023-05-14T01:29:33.716Z,0.00
2023-05-14T01:30:33.725Z,0.00
2023-05-14T01:31:33.750Z,0.00
2023-05-14T01:32:33.748Z,0.00
2023-05-14T01:33:33.695Z,0.00
2023-05-14T01:34:33.689Z,0.00
2023-05-14T01:35:33.727Z,0.00
2023-05-14T01:36:33.657Z,0.00
2023-05-14T01:37:33.646Z,0.00
2023-05-14T01:38:33.645Z,0.00
2023-05-14T01:39:33.689Z,0.00
2023-05-14T01:40:33.634Z,0.00
2023-05-14T01:41:33.608Z,0.00
2023-05-14T01:42:33.598Z,0.00
2023-05-14T01:43:33.690Z,0.00
2023-05-14T01:44:33.571Z,0.00
2023-05-14T01:45:33.532Z,0.00
2023-05-14T01:46:33.750Z,0.00
2023-05-14T01:47:33.557Z,0.00
2023-05-14T01:48:33.494Z,0.00
2023-05-14T01:49:33.552Z,0.00
2023-05-14T01:50:33.497Z,0.00
2023-05-14T01:51:33.501Z,0.00
2023-05-14T01:52:33.434Z,0.00
2023-05-14T01:57:10.554Z,0.00
2023-05-14T01:58:10.551Z,0.00
2023-05-14T01:59:10.521Z,0.00
2023-05-14T02:00:10.513Z,0.00
2023-05-14T02:01:10.552Z,0.00
2023-05-14T02:02:10.478Z,0.00
2023-05-14T02:03:10.477Z,0.00
2023-05-14T02:04:10.500Z,0.00
2023-05-14T02:05:10.421Z,0.00
2023-05-14T02:06:10.418Z,0.00
2023-05-14T02:07:10.401Z,0.00
2023-05-14T02:08:10.381Z,0.00
2023-05-14T02:09:10.394Z,0.00
2023-05-14T02:10:10.386Z,0.00
2023-05-14T02:11:10.366Z,0.00
2023-05-14T02:12:10.344Z,0.00
2023-05-14T02:13:10.401Z,0.00
2023-05-14T02:14:10.336Z,0.00
2023-05-14T02:15:10.312Z,0.00
2023-05-14T02:16:10.384Z,0.00
2023-05-14T02:17:10.284Z,0.00
2023-05-14T02:18:10.330Z,0.00
2023-05-14T02:19:10.372Z,0.00
2023-05-14T02:20:10.296Z,0.00
2023-05-14T02:21:10.256Z,0.00
2023-05-14T02:22:10.247Z,0.00
2023-05-14T02:23:10.232Z,0.00
2023-05-14T02:24:10.241Z,0.00
2023-05-14T02:25:10.249Z,0.00
2023-05-14T02:26:10.251Z,0.00
2023-05-14T02:27:10.213Z,0.00
2023-05-14T02:28:10.246Z,0.00
2023-05-14T02:29:10.216Z,0.00
2023-05-14T02:30:10.194Z,0.00
2023-05-14T02:31:10.158Z,0.00
2023-05-14T02:32:10.186Z,0.00
2023-05-14T02:33:10.214Z,0.00
2023-05-14T02:34:10.124Z,0.00
2023-05-14T02:35:10.091Z,0.00
2023-05-14T02:36:10.100Z,0.00
2023-05-14T02:37:10.097Z,0.00
2023-05-14T02:38:10.131Z,0.00
2023-05-14T02:39:10.066Z,0.00
2023-05-14T02:40:10.125Z,0.00
2023-05-14T02:41:10.046Z,0.00
2023-05-14T02:42:10.030Z,0.00
2023-05-14T02:43:10.014Z,0.00
2023-05-14T02:44:10.044Z,0.00
2023-05-14T02:45:09.995Z,0.00
2023-05-14T02:46:10.009Z,0.00
2023-05-14T02:47:10.028Z,0.00
2023-05-14T02:48:10.022Z,0.00
2023-05-14T02:49:09.993Z,0.00
2023-05-14T02:50:09.987Z,0.00
2023-05-14T02:51:09.961Z,0.00
2023-05-14T02:52:09.948Z,0.00
2023-05-14T02:53:09.906Z,0.00
2023-05-14T02:54:09.939Z,0.00
2023-05-14T02:55:09.938Z,0.00
2023-05-14T02:56:09.874Z,0.00
2023-05-14T02:57:09.883Z,0.00
2023-05-14T02:58:09.895Z,0.00
2023-05-14T02:59:09.962Z,0.00
2023-05-14T03:00:09.888Z,0.00
2023-05-14T03:01:09.853Z,0.00
2023-05-14T03:02:09.898Z,0.00
2023-05-14T03:03:09.865Z,0.00
2023-05-14T03:04:09.889Z,0.00
2023-05-14T03:05:09.799Z,0.00
2023-05-14T03:06:09.820Z,0.00
2023-05-14T03:07:09.761Z,0.00
2023-05-14T03:08:09.796Z,0.00
2023-05-14T03:09:09.751Z,0.00
2023-05-14T03:10:09.760Z,0.00
2023-05-14T03:11:09.714Z,0.00
2023-05-14T03:12:09.715Z,0.00
2023-05-14T03:13:09.719Z,0.00
2023-05-14T03:14:09.728Z,0.00
2023-05-14T03:15:09.681Z,0.00
2023-05-14T03:16:09.704Z,0.00
2023-05-14T03:17:09.721Z,0.00
2023-05-14T03:18:09.655Z,0.00
2023-05-14T03:19:09.751Z,0.00
2023-05-14T03:20:09.608Z,0.00
2023-05-14T03:21:09.613Z,0.00
2023-05-14T03:22:09.633Z,0.00
2023-05-14T03:23:09.617Z,0.00
2023-05-14T03:24:09.593Z,0.00
2023-05-14T03:25:09.592Z,5.62
2023-05-14T03:26:09.578Z,5.62
2023-05-14T03:27:09.550Z,5.62
2023-05-14T03:28:09.542Z,5.62
2023-05-14T03:29:09.511Z,5.62
2023-05-14T03:30:09.716Z,5.62
2023-05-14T03:31:09.545Z,5.62
2023-05-14T03:32:09.536Z,5.62
2023-05-14T03:33:09.491Z,11.25
2023-05-14T03:34:09.474Z,11.25
2023-05-14T03:35:09.449Z,11.25
2023-05-14T03:36:09.438Z,11.25
2023-05-14T03:37:09.483Z,11.25
2023-05-14T03:38:09.460Z,16.88
2023-05-14T03:39:09.432Z,16.88
2023-05-14T03:40:09.449Z,16.88
2023-05-14T03:41:09.474Z,16.88
2023-05-14T03:42:09.375Z,22.50
2023-05-14T03:43:09.434Z,22.50
2023-05-14T03:44:09.406Z,22.50
2023-05-14T03:45:09.357Z,22.50
2023-05-14T03:46:09.362Z,28.12
2023-05-14T03:47:09.349Z,28.12
2023-05-14T03:48:09.465Z,28.12
2023-05-14T03:49:09.334Z,33.75
2023-05-14T03:50:09.331Z,33.75
2023-05-14T03:51:09.291Z,33.75
2023-05-14T03:52:09.305Z,33.75
2023-05-14T03:53:09.302Z,39.38
2023-05-14T03:54:09.269Z,39.38
2023-05-14T03:55:09.262Z,39.38
2023-05-14T03:56:09.250Z,45.00
2023-05-14T03:57:09.242Z,45.00
2023-05-14T03:58:09.215Z,50.62
2023-05-14T03:59:09.242Z,50.62
2023-05-14T04:00:09.221Z,50.62
2023-05-14T04:01:09.839Z,56.25
2023-05-14T04:02:09.170Z,56.25
2023-05-14T04:03:09.247Z,56.25
2023-05-14T04:04:09.277Z,61.88
2023-05-14T04:05:09.167Z,61.88
2023-05-14T04:06:09.128Z,67.50
2023-05-14T04:07:09.170Z,67.50
2023-05-14T04:08:09.114Z,67.50
2023-05-14T04:09:09.158Z,73.12
2023-05-14T04:10:09.106Z,73.12
2023-05-14T04:11:09.085Z,78.75
2023-05-14T04:12:09.090Z,78.75
2023-05-14T04:13:09.065Z,78.75
2023-05-14T04:14:09.046Z,84.38
2023-05-14T04:15:09.036Z,84.38
2023-05-14T04:16:09.062Z,90.00
2023-05-14T04:17:09.017Z,90.00
2023-05-14T04:18:09.046Z,95.62
2023-05-14T04:19:09.093Z,95.62
2023-05-14T04:20:08.998Z,95.62
2023-05-14T04:21:09.012Z,101.25
2023-05-14T04:22:08.958Z,101.25
2023-05-14T04:23:08.977Z,106.88
2023-05-14T04:24:08.911Z,106.88
2023-05-14T04:25:08.961Z,112.50
2023-05-14T04:26:08.923Z,112.50
2023-05-14T04:27:08.934Z,118.12
2023-05-14T04:28:08.893Z,118.12
2023-05-14T04:29:08.942Z,123.75
2023-05-14T04:30:08.936Z,123.75
2023-05-14T04:31:08.887Z,123.75
2023-05-14T04:32:11.078Z,123.75
2023-05-14T04:33:08.927Z,123.75
2023-05-14T04:34:08.838Z,129.38
2023-05-14T04:35:08.848Z,135.00
2023-05-14T04:36:08.826Z,135.00
2023-05-14T04:37:08.836Z,140.62
2023-05-14T04:38:08.782Z,140.62
2023-05-14T04:39:09.296Z,146.25
2023-05-14T04:40:08.792Z,146.25
2023-05-14T04:41:08.837Z,151.88
2023-05-14T04:42:08.770Z,157.50
2023-05-14T04:43:08.805Z,157.50
2023-05-14T04:44:08.706Z,163.12
2023-05-14T04:45:08.734Z,168.75
2023-05-14T04:46:08.756Z,174.38
2023-05-14T04:47:08.711Z,180.00
2023-05-14T04:48:08.890Z,185.62
2023-05-14T04:49:08.670Z,185.62
2023-05-14T04:50:08.643Z,191.25
2023-05-14T04:51:08.761Z,191.25
2023-05-14T04:52:08.633Z,196.88
2023-05-14T04:53:08.798Z,202.50
2023-05-14T04:54:08.954Z,208.12
2023-05-14T04:55:08.672Z,213.75
2023-05-14T04:56:08.629Z,213.75
2023-05-14T04:57:08.605Z,219.38
2023-05-14T04:58:08.571Z,225.00
2023-05-14T04:59:08.611Z,230.62
2023-05-14T05:00:08.673Z,230.62
2023-05-14T05:01:08.664Z,236.25
2023-05-14T05:02:08.670Z,241.88
2023-05-14T05:03:08.694Z,247.50
2023-05-14T05:04:08.604Z,247.50
2023-05-14T05:05:08.803Z,253.12
2023-05-14T05:06:08.520Z,258.75
2023-05-14T05:07:08.531Z,264.38
2023-05-14T05:08:08.478Z,270.00
2023-05-14T05:09:08.520Z,275.62
2023-05-14T05:10:08.569Z,270.00
2023-05-14T05:11:08.486Z,281.25
2023-05-14T05:12:08.487Z,286.88
2023-05-14T05:13:08.447Z,292.50
2023-05-14T05:14:08.472Z,298.12
2023-05-14T05:15:08.407Z,298.12
2023-05-14T05:16:08.636Z,298.12
2023-05-14T05:17:08.404Z,303.75
2023-05-14T05:18:08.415Z,303.75
2023-05-14T05:19:08.464Z,303.75
2023-05-14T05:20:08.384Z,303.75
2023-05-14T05:21:08.349Z,303.75
2023-05-14T05:22:08.411Z,303.75
2023-05-14T05:23:08.342Z,309.38
2023-05-14T05:24:08.315Z,309.38
2023-05-14T05:25:08.317Z,309.38
2023-05-14T05:26:08.305Z,309.38
2023-05-14T05:27:08.317Z,309.38
2023-05-14T05:28:08.409Z,309.38
2023-05-14T05:29:08.248Z,303.75
2023-05-14T05:30:08.220Z,303.75
2023-05-14T05:31:08.400Z,320.62
2023-05-14T05:32:08.225Z,320.62
2023-05-14T05:33:08.251Z,320.62
2023-05-14T05:34:08.438Z,326.25
2023-05-14T05:35:08.230Z,331.88
2023-05-14T05:36:08.209Z,343.12
2023-05-14T05:37:08.221Z,348.75
2023-05-14T05:38:08.150Z,348.75
2023-05-14T05:39:08.166Z,348.75
2023-05-14T05:40:08.137Z,331.88
2023-05-14T05:41:08.170Z,348.75
2023-05-14T05:42:08.117Z,376.88
2023-05-14T05:43:08.127Z,388.12
2023-05-14T05:44:08.127Z,393.75
2023-05-14T05:45:08.106Z,393.75
2023-05-14T05:46:08.122Z,399.38
2023-05-14T05:47:08.110Z,405.00
2023-05-14T05:48:08.108Z,405.00
2023-05-14T05:49:08.056Z,416.25
2023-05-14T05:50:08.033Z,421.88
2023-05-14T05:51:08.034Z,421.88
2023-05-14T05:52:07.978Z,421.88
2023-05-14T05:53:08.072Z,433.12
2023-05-14T05:54:08.058Z,433.12
2023-05-14T05:55:07.986Z,438.75
2023-05-14T05:56:07.992Z,444.38
2023-05-14T05:57:08.000Z,444.38
2023-05-14T05:58:07.969Z,450.00
2023-05-14T05:59:07.965Z,450.00
2023-05-14T06:00:07.944Z,455.62
2023-05-14T06:01:07.951Z,461.25
2023-05-14T06:02:07.992Z,461.25
2023-05-14T06:03:07.919Z,466.88
2023-05-14T06:04:07.895Z,472.50
2023-05-14T06:05:07.963Z,478.12
2023-05-14T06:06:07.875Z,483.75
2023-05-14T06:07:07.854Z,483.75
2023-05-14T06:08:07.842Z,489.38
2023-05-14T06:09:07.868Z,489.38
2023-05-14T06:10:07.872Z,495.00
2023-05-14T06:11:07.792Z,495.00
2023-05-14T06:12:07.849Z,500.62
2023-05-14T06:13:07.855Z,495.00
2023-05-14T06:14:07.805Z,511.88
2023-05-14T06:15:07.782Z,511.88
2023-05-14T06:16:07.765Z,517.50
2023-05-14T06:17:07.794Z,523.12
2023-05-14T06:18:07.750Z,523.12
2023-05-14T06:19:07.867Z,523.12
2023-05-14T06:20:07.743Z,523.12
2023-05-14T06:21:07.717Z,528.75
2023-05-14T06:22:07.684Z,528.75
2023-05-14T06:23:07.692Z,517.50
2023-05-14T06:24:07.686Z,528.75
2023-05-14T06:25:07.784Z,528.75
2023-05-14T06:26:07.654Z,523.12
2023-05-14T06:27:07.709Z,528.75
2023-05-14T06:28:07.658Z,517.50
2023-05-14T06:29:07.713Z,523.12
2023-05-14T06:30:07.628Z,523.12
2023-05-14T06:31:07.604Z,523.12
2023-05-14T06:32:07.618Z,523.12
2023-05-14T06:33:07.575Z,528.75
2023-05-14T06:34:07.554Z,506.25
2023-05-14T06:35:07.929Z,511.88
2023-05-14T06:36:07.570Z,511.88
2023-05-14T06:37:07.597Z,523.12
2023-05-14T06:38:07.517Z,523.12
2023-05-14T06:39:07.483Z,511.88
2023-05-14T06:40:07.505Z,495.00
2023-05-14T06:41:07.487Z,506.25
2023-05-14T06:42:07.516Z,489.38
2023-05-14T06:43:07.503Z,455.62
2023-05-14T06:44:07.796Z,455.62
2023-05-14T06:45:07.469Z,483.75
2023-05-14T06:46:07.394Z,483.75
2023-05-14T06:47:07.382Z,483.75
2023-05-14T06:48:07.509Z,478.12
2023-05-14T06:49:07.439Z,472.50
2023-05-14T06:50:09.527Z,461.25
2023-05-14T06:51:07.818Z,444.38
2023-05-14T06:52:07.377Z,450.00
2023-05-14T06:53:07.340Z,438.75
2023-05-14T06:54:07.369Z,433.12
2023-05-14T06:55:07.341Z,399.38
2023-05-14T06:56:07.316Z,393.75
2023-05-14T06:57:07.364Z,393.75
2023-05-14T06:58:07.283Z,421.88
2023-05-14T06:59:07.296Z,421.88
2023-05-14T07:00:07.404Z,416.25
2023-05-14T07:01:07.357Z,416.25
2023-05-14T07:02:07.740Z,376.88
2023-05-14T07:03:07.859Z,348.75
2023-05-14T07:04:07.525Z,348.75
2023-05-14T07:05:07.450Z,354.38
2023-05-14T07:06:07.578Z,360.00
2023-05-14T07:07:07.335Z,331.88
2023-05-14T07:08:07.331Z,320.62
2023-05-14T07:09:07.196Z,315.00
2023-05-14T07:10:07.223Z,315.00
2023-05-14T07:11:07.229Z,303.75
2023-05-14T07:12:07.153Z,303.75
2023-05-14T07:13:07.148Z,309.38
2023-05-14T07:14:07.215Z,315.00
2023-05-14T07:15:07.124Z,320.62
2023-05-14T07:16:07.204Z,315.00
2023-05-14T07:17:07.123Z,309.38
2023-05-14T07:18:07.120Z,309.38
2023-05-14T07:19:07.214Z,309.38
2023-05-14T07:20:07.070Z,309.38
2023-05-14T07:21:07.091Z,309.38
2023-05-14T07:22:07.057Z,309.38
2023-05-14T07:23:07.019Z,309.38
2023-05-14T07:24:07.011Z,315.00
2023-05-14T07:25:07.037Z,315.00
2023-05-14T07:26:06.979Z,320.62
2023-05-14T07:27:06.994Z,326.25
2023-05-14T07:28:06.986Z,331.88
2023-05-14T07:29:06.947Z,331.88
2023-05-14T07:30:06.967Z,331.88
2023-05-14T07:31:06.975Z,331.88
2023-05-14T07:32:06.911Z,343.12
2023-05-14T07:33:07.006Z,360.00
2023-05-14T07:34:06.887Z,354.38
2023-05-14T07:35:06.915Z,354.38
2023-05-14T07:36:06.896Z,360.00
2023-05-14T07:37:07.116Z,371.25
2023-05-14T07:38:06.900Z,365.62
2023-05-14T07:39:06.877Z,365.62
2023-05-14T07:40:06.818Z,421.88
2023-05-14T07:41:06.838Z,388.12
2023-05-14T07:42:06.822Z,388.12
2023-05-14T07:43:06.825Z,399.38
2023-05-14T07:44:06.793Z,405.00
2023-05-14T07:45:06.798Z,427.50
2023-05-14T07:46:06.784Z,416.25
2023-05-14T07:47:06.781Z,416.25
2023-05-14T07:48:06.876Z,455.62
2023-05-14T07:49:06.745Z,455.62
2023-05-14T07:50:06.739Z,444.38
2023-05-14T07:51:06.760Z,455.62
2023-05-14T07:52:06.699Z,416.25
2023-05-14T07:53:06.717Z,416.25
2023-05-14T07:54:15.500Z,433.12
2023-05-14T07:55:06.656Z,421.88
2023-05-14T07:56:06.662Z,433.12
2023-05-14T07:57:06.636Z,438.75
2023-05-14T07:58:06.654Z,444.38
2023-05-14T07:59:06.616Z,455.62
2023-05-14T08:00:06.599Z,444.38
2023-05-14T08:01:06.592Z,427.50
2023-05-14T08:02:06.770Z,433.12
2023-05-14T08:03:06.853Z,455.62
2023-05-14T08:04:06.698Z,478.12
2023-05-14T08:05:06.554Z,489.38
2023-05-14T08:06:06.654Z,489.38
2023-05-14T08:07:06.552Z,495.00
2023-05-14T08:08:06.622Z,478.12
2023-05-14T08:09:06.503Z,500.62
2023-05-14T08:10:06.556Z,506.25
2023-05-14T08:11:06.544Z,500.62
2023-05-14T08:12:06.502Z,500.62
2023-05-14T08:13:06.484Z,506.25
2023-05-14T08:14:06.487Z,506.25
2023-05-14T08:15:06.442Z,500.62
2023-05-14T08:16:06.483Z,500.62
2023-05-14T08:17:06.533Z,500.62
2023-05-14T08:18:06.462Z,506.25
2023-05-14T08:19:06.455Z,506.25
2023-05-14T08:20:06.421Z,506.25
2023-05-14T08:21:06.382Z,506.25
2023-05-14T08:22:06.376Z,506.25
2023-05-14T08:23:06.390Z,506.25
2023-05-14T08:24:06.366Z,506.25
2023-05-14T08:25:06.360Z,506.25
2023-05-14T08:26:06.354Z,500.62
2023-05-14T08:27:06.316Z,506.25
2023-05-14T08:28:06.345Z,511.88
2023-05-14T08:29:07.141Z,511.88
2023-05-14T08:30:06.305Z,517.50
2023-05-14T08:31:06.509Z,511.88
2023-05-14T08:32:19.298Z,511.88
2023-05-14T08:33:07.347Z,495.00
2023-05-14T08:34:06.258Z,517.50
2023-05-14T08:35:06.257Z,517.50
2023-05-14T08:36:06.243Z,517.50
2023-05-14T08:37:06.245Z,523.12
2023-05-14T08:38:06.210Z,523.12
2023-05-14T08:39:06.655Z,523.12
2023-05-14T08:40:06.184Z,528.75
2023-05-14T08:41:06.204Z,528.75
2023-05-14T08:42:06.161Z,534.38
2023-05-14T08:43:06.173Z,540.00
2023-05-14T08:44:06.218Z,540.00
2023-05-14T08:45:06.117Z,540.00
2023-05-14T08:46:06.129Z,545.62
2023-05-14T08:47:06.247Z,556.88
2023-05-14T08:48:06.429Z,568.12
2023-05-14T08:49:06.118Z,568.12
2023-05-14T08:50:06.094Z,573.75
2023-05-14T08:51:06.050Z,579.38
2023-05-14T08:52:06.143Z,579.38
2023-05-14T08:53:06.053Z,579.38
2023-05-14T08:54:06.092Z,573.75
2023-05-14T08:55:06.088Z,573.75
2023-05-14T08:56:06.011Z,573.75
2023-05-14T08:57:06.133Z,568.12
2023-05-14T08:58:05.993Z,568.12
2023-05-14T08:59:06.151Z,562.50
2023-05-14T09:00:05.983Z,573.75
2023-05-14T09:01:05.953Z,579.38
2023-05-14T09:02:05.990Z,579.38
2023-05-14T09:03:05.982Z,579.38
2023-05-14T09:04:05.964Z,556.88
2023-05-14T09:05:05.906Z,568.12
2023-05-14T09:06:05.884Z,556.88
2023-05-14T09:07:05.886Z,579.38
2023-05-14T09:08:05.877Z,579.38
2023-05-14T09:09:05.897Z,585.00
2023-05-14T09:10:05.935Z,585.00
2023-05-14T09:11:05.896Z,585.00
2023-05-14T09:12:05.876Z,579.38
2023-05-14T09:13:05.837Z,568.12
2023-05-14T09:14:05.824Z,585.00
2023-05-14T09:15:05.805Z,568.12
2023-05-14T09:16:05.907Z,556.88
2023-05-14T09:17:05.785Z,556.88
2023-05-14T09:18:05.781Z,556.88
2023-05-14T09:19:05.893Z,562.50
2023-05-14T09:20:05.760Z,596.25
2023-05-14T09:21:05.723Z,607.50
2023-05-14T09:22:05.795Z,613.12
2023-05-14T09:23:05.786Z,613.12
2023-05-14T09:24:05.707Z,613.12
2023-05-14T09:25:05.701Z,607.50
2023-05-14T09:26:05.696Z,613.12
2023-05-14T09:27:05.675Z,613.12
2023-05-14T09:28:05.667Z,624.38
2023-05-14T09:29:05.641Z,630.00
2023-05-14T09:30:05.708Z,618.75
2023-05-14T09:31:05.696Z,641.25
2023-05-14T09:32:05.898Z,630.00
2023-05-14T09:33:05.707Z,652.50
2023-05-14T09:34:05.596Z,652.50
2023-05-14T09:35:05.626Z,658.12
2023-05-14T09:36:05.712Z,658.12
2023-05-14T09:37:05.549Z,663.75
2023-05-14T09:38:05.696Z,663.75
2023-05-14T09:39:05.528Z,663.75
2023-05-14T09:40:05.609Z,669.38
2023-05-14T09:41:06.289Z,669.38
2023-05-14T09:42:05.659Z,669.38
2023-05-14T09:43:05.531Z,663.75
2023-05-14T09:44:06.737Z,663.75
2023-05-14T09:45:05.498Z,669.38
2023-05-14T09:46:05.478Z,669.38
2023-05-14T09:47:05.610Z,675.00
2023-05-14T09:48:05.585Z,680.62
2023-05-14T09:49:05.432Z,686.25
2023-05-14T09:50:05.446Z,697.50
2023-05-14T09:51:05.428Z,703.12
2023-05-14T09:52:05.416Z,708.75
2023-05-14T09:53:05.439Z,697.50
2023-05-14T09:54:05.375Z,680.62
2023-05-14T09:55:05.377Z,703.12
2023-05-14T09:56:05.421Z,675.00
2023-05-14T09:57:05.369Z,646.88
2023-05-14T09:58:05.360Z,697.50
2023-05-14T09:59:05.338Z,703.12
2023-05-14T10:00:05.313Z,748.12
2023-05-14T10:01:05.308Z,838.12
2023-05-14T10:02:05.341Z,961.88
2023-05-14T10:03:05.314Z,1057.50
2023-05-14T10:04:05.391Z,1299.38
2023-05-14T10:05:05.287Z,1648.12
2023-05-14T10:06:05.261Z,1676.25
2023-05-14T10:07:05.245Z,1507.50
2023-05-14T10:08:05.264Z,1406.25
2023-05-14T10:09:05.223Z,1366.88
2023-05-14T10:10:05.235Z,1305.00
2023-05-14T10:11:05.195Z,1243.12
2023-05-14T10:12:05.558Z,1237.50
2023-05-14T10:13:05.156Z,1265.62
2023-05-14T10:14:05.183Z,1231.88
2023-05-14T10:15:05.209Z,1175.62
2023-05-14T10:16:05.151Z,1158.75
2023-05-14T10:17:05.170Z,1136.25
2023-05-14T10:18:05.211Z,1102.50
2023-05-14T10:19:05.216Z,1074.38
2023-05-14T10:20:05.112Z,1046.25
2023-05-14T10:21:05.084Z,1040.62
2023-05-14T10:22:05.107Z,1035.00
2023-05-14T10:23:05.100Z,1051.88
2023-05-14T10:24:05.077Z,1102.50
2023-05-14T10:25:05.051Z,1074.38
2023-05-14T10:26:05.055Z,1040.62
2023-05-14T10:27:05.049Z,1068.75
2023-05-14T10:28:05.027Z,1091.25
2023-05-14T10:29:05.015Z,1091.25
2023-05-14T10:30:05.019Z,1080.00
2023-05-14T10:31:05.106Z,1091.25
2023-05-14T10:32:04.990Z,1091.25
2023-05-14T10:33:05.001Z,1102.50
2023-05-14T10:34:04.967Z,1091.25
2023-05-14T10:35:04.981Z,1080.00
2023-05-14T10:36:04.980Z,1068.75
2023-05-14T10:37:04.926Z,1113.75
2023-05-14T10:38:04.943Z,1074.38
2023-05-14T10:39:04.931Z,1023.75
2023-05-14T10:40:04.918Z,1035.00
2023-05-14T10:41:04.932Z,1051.88
2023-05-14T10:42:04.880Z,1113.75
2023-05-14T10:43:05.421Z,1091.25
2023-05-14T10:44:04.863Z,1136.25
2023-05-14T10:45:04.864Z,1136.25
2023-05-14T10:46:04.852Z,1170.00
2023-05-14T10:47:04.827Z,1260.00
2023-05-14T10:48:04.830Z,945.00
2023-05-14T10:49:04.801Z,1040.62
2023-05-14T10:50:04.855Z,1091.25
2023-05-14T10:51:04.793Z,1170.00
2023-05-14T10:52:04.775Z,1186.88
2023-05-14T10:53:04.748Z,1186.88
2023-05-14T10:54:04.772Z,1147.50
2023-05-14T10:55:04.739Z,1091.25
2023-05-14T10:56:04.730Z,1203.75
2023-05-14T10:57:04.707Z,1355.62
2023-05-14T10:58:04.727Z,1344.38
2023-05-14T10:59:04.720Z,1355.62
2023-05-14T11:00:04.703Z,1417.50
2023-05-14T11:01:04.682Z,1417.50
2023-05-14T11:02:04.753Z,1361.25
2023-05-14T11:03:04.701Z,1614.38
2023-05-14T11:04:04.703Z,1625.62
2023-05-14T11:05:04.653Z,883.12
2023-05-14T11:06:04.647Z,832.50
2023-05-14T11:07:04.659Z,798.75
2023-05-14T11:08:04.628Z,759.38
2023-05-14T11:09:04.597Z,748.12
2023-05-14T11:10:04.589Z,742.50
2023-05-14T11:11:04.582Z,736.88
2023-05-14T11:12:04.583Z,742.50
2023-05-14T11:13:04.566Z,759.38
2023-05-14T11:14:05.477Z,776.25
2023-05-14T11:15:04.553Z,793.12
2023-05-14T11:16:19.032Z,815.62
2023-05-14T11:17:05.550Z,928.12
2023-05-14T11:18:04.540Z,1895.62
2023-05-14T11:19:04.566Z,1940.62
2023-05-14T11:20:04.514Z,1957.50
2023-05-14T11:21:04.499Z,1811.25
2023-05-14T11:22:04.481Z,1901.25
2023-05-14T11:23:04.453Z,1901.25
2023-05-14T11:24:04.466Z,2030.62
2023-05-14T11:25:04.431Z,2013.75
2023-05-14T11:26:04.490Z,2109.38
2023-05-14T11:27:04.415Z,1985.62
2023-05-14T11:28:04.430Z,1715.62
2023-05-14T11:29:04.406Z,1816.88
2023-05-14T11:30:04.390Z,2025.00
2023-05-14T11:31:04.402Z,2238.75
2023-05-14T11:32:04.506Z,2193.75
2023-05-14T11:33:04.371Z,2115.00
2023-05-14T11:34:04.373Z,990.00
2023-05-14T11:35:04.346Z,1215.00
2023-05-14T11:36:04.405Z,1873.12
2023-05-14T11:37:04.335Z,2075.62
2023-05-14T11:38:04.314Z,2272.50
2023-05-14T11:39:04.342Z,2205.00
2023-05-14T11:40:04.283Z,2092.50
2023-05-14T11:41:04.275Z,2137.50
2023-05-14T11:42:04.286Z,1968.75
2023-05-14T11:43:04.261Z,2171.25
2023-05-14T11:44:04.249Z,2289.38
2023-05-14T11:45:04.358Z,2216.25
2023-05-14T11:46:04.293Z,2261.25
2023-05-14T11:47:04.209Z,1040.62
2023-05-14T11:48:04.297Z,939.38
2023-05-14T11:49:04.188Z,905.62
2023-05-14T11:50:04.193Z,866.25
2023-05-14T11:51:04.201Z,843.75
2023-05-14T11:52:04.190Z,826.88
2023-05-14T11:53:04.178Z,804.38
2023-05-14T11:54:04.136Z,787.50
2023-05-14T11:55:04.136Z,765.00
2023-05-14T11:56:04.158Z,776.25
2023-05-14T11:57:04.108Z,787.50
2023-05-14T11:58:04.137Z,804.38
2023-05-14T11:59:04.151Z,826.88
2023-05-14T12:00:04.135Z,871.88
2023-05-14T12:01:04.092Z,967.50
2023-05-14T12:02:04.111Z,939.38
2023-05-14T12:03:04.181Z,1096.88
2023-05-14T12:04:04.150Z,973.12
2023-05-14T12:05:04.026Z,967.50
2023-05-14T12:06:04.020Z,990.00
2023-05-14T12:07:04.016Z,1254.38
2023-05-14T12:08:04.006Z,1001.25
2023-05-14T12:09:03.967Z,967.50
2023-05-14T12:10:04.004Z,956.25
2023-05-14T12:11:03.965Z,933.75
2023-05-14T12:12:03.956Z,905.62
2023-05-14T12:13:03.961Z,860.62
2023-05-14T12:14:04.098Z,832.50
2023-05-14T12:15:03.922Z,781.88
2023-05-14T12:16:04.063Z,742.50
2023-05-14T12:17:03.913Z,720.00
2023-05-14T12:18:03.940Z,697.50
2023-05-14T12:19:03.967Z,691.88
2023-05-14T12:20:04.170Z,691.88
2023-05-14T12:21:03.871Z,697.50
2023-05-14T12:22:03.963Z,697.50
2023-05-14T12:23:03.856Z,697.50
2023-05-14T12:24:03.844Z,708.75
2023-05-14T12:25:03.812Z,731.25
2023-05-14T12:26:03.798Z,748.12
2023-05-14T12:27:03.801Z,765.00
2023-05-14T12:28:03.765Z,984.38
2023-05-14T12:29:03.821Z,1833.75
2023-05-14T12:30:19.863Z,2120.62
2023-05-14T12:31:04.799Z,2199.38
2023-05-14T12:32:03.754Z,2255.62
2023-05-14T12:33:03.752Z,2261.25
2023-05-14T12:34:03.740Z,2205.00
2023-05-14T12:35:03.792Z,2126.25
2023-05-14T12:37:03.763Z,2475.00
2023-05-14T12:38:03.673Z,2435.62
2023-05-14T12:39:03.705Z,2058.75
2023-05-14T12:40:03.665Z,2340.00
2023-05-14T12:41:03.776Z,2300.62
2023-05-14T12:42:03.635Z,2604.38
2023-05-14T12:43:03.611Z,2604.38
2023-05-14T12:44:03.617Z,2385.00